createdAt,value
2017-01-01T00:00:33.459Z,1017.68
2017-01-01T00:01:14.102Z,1017.65
2017-01-01T00:01:54.731Z,1017.67
2017-01-01T00:02:35.345Z,1017.67
2017-01-01T00:03:15.990Z,1017.69
2017-01-01T00:03:56.631Z,1017.67
2017-01-01T00:04:37.271Z,1017.64
2017-01-01T00:05:17.901Z,1017.63
2017-01-01T00:05:58.534Z,1017.64
2017-01-01T00:06:39.163Z,1017.62
2017-01-01T00:07:19.797Z,1017.59
2017-01-01T00:08:00.439Z,1017.58
2017-01-01T00:08:41.084Z,1017.61
2017-01-01T00:09:21.710Z,1017.59
2017-01-01T00:10:02.348Z,1017.64
2017-01-01T00:10:43.017Z,1017.66
2017-01-01T00:11:23.651Z,1017.62
2017-01-01T00:12:04.288Z,1017.62
2017-01-01T00:12:44.944Z,1017.61
2017-01-01T00:13:25.611Z,1017.62
2017-01-01T00:14:06.259Z,1017.59
2017-01-01T00:14:46.899Z,1017.62
2017-01-01T00:15:27.524Z,1017.62
2017-01-01T00:16:08.148Z,1017.58
2017-01-01T00:16:48.795Z,1017.63
2017-01-01T00:17:29.433Z,1017.59
2017-01-01T00:18:10.076Z,1017.59
2017-01-01T00:18:50.729Z,1017.61
2017-01-01T00:19:31.355Z,1017.59
2017-01-01T00:20:11.991Z,1017.54
2017-01-01T00:20:52.750Z,1017.58
2017-01-01T00:21:33.390Z,1017.55
2017-01-01T00:22:14.020Z,1017.49
2017-01-01T00:22:54.652Z,1017.53
2017-01-01T00:23:35.288Z,1017.47
2017-01-01T00:24:15.916Z,1017.51
2017-01-01T00:24:56.563Z,1017.5
2017-01-01T00:25:37.194Z,1017.48
2017-01-01T00:26:17.831Z,1017.47
2017-01-01T00:26:58.526Z,1017.47
2017-01-01T00:27:39.170Z,1017.46
2017-01-01T00:28:19.791Z,1017.43
2017-01-01T00:29:00.537Z,1017.42
2017-01-01T00:29:41.176Z,1017.45
2017-01-01T00:30:21.861Z,1017.43
2017-01-01T00:31:02.456Z,1017.41
2017-01-01T00:31:43.079Z,1017.41
2017-01-01T00:32:23.751Z,1017.4
2017-01-01T00:33:04.367Z,1017.42
2017-01-01T00:33:45.000Z,1017.35
2017-01-01T00:34:25.674Z,1017.35
2017-01-01T00:35:06.315Z,1017.34
2017-01-01T00:35:46.933Z,1017.33
2017-01-01T00:36:27.600Z,1017.33
2017-01-01T00:38:20.822Z,1017.29
2017-01-01T00:39:01.452Z,1017.25
2017-01-01T00:39:42.080Z,1017.28
2017-01-01T00:40:22.710Z,1017.27
2017-01-01T00:41:03.367Z,1017.26
2017-01-01T00:41:44.001Z,1017.24
2017-01-01T00:42:24.622Z,1017.25
2017-01-01T00:43:05.255Z,1017.23
2017-01-01T00:43:45.942Z,1017.24
2017-01-01T00:44:26.561Z,1017.21
2017-01-01T00:45:07.251Z,1017.21
2017-01-01T00:45:47.844Z,1017.18
2017-01-01T00:46:28.466Z,1017.18
2017-01-01T00:47:09.101Z,1017.18
2017-01-01T00:47:49.785Z,1017.21
2017-01-01T00:48:30.408Z,1017.16
2017-01-01T00:49:11.041Z,1017.19
2017-01-01T00:49:51.663Z,1017.16
2017-01-01T00:50:32.314Z,1017.17
2017-01-01T00:51:12.946Z,1017.14
2017-01-01T00:51:53.584Z,1017.16
2017-01-01T00:52:34.218Z,1017.18
2017-01-01T00:53:14.856Z,1017.18
2017-01-01T00:53:55.484Z,1017.13
2017-01-01T00:54:36.150Z,1017.15
2017-01-01T00:55:16.787Z,1017.14
2017-01-01T00:55:57.416Z,1017.16
2017-01-01T00:56:38.060Z,1017.13
2017-01-01T00:57:18.691Z,1017.13
2017-01-01T00:57:59.327Z,1017.16
2017-01-01T00:58:40.000Z,1017.18
2017-01-01T00:59:20.643Z,1017.15
2017-01-01T01:00:01.272Z,1017.18
2017-01-01T01:00:42.008Z,1017.12
2017-01-01T01:01:22.636Z,1017.17
2017-01-01T01:02:03.266Z,1017.14
2017-01-01T01:02:43.934Z,1017.16
2017-01-01T01:03:24.570Z,1017.1
2017-01-01T01:04:05.225Z,1017.08
2017-01-01T01:04:45.888Z,1017.11
2017-01-01T01:05:26.582Z,1017.05
2017-01-01T01:06:07.212Z,1017.1
2017-01-01T01:06:47.829Z,1017.11
2017-01-01T01:07:28.461Z,1017.04
2017-01-01T01:08:09.094Z,1017.03
2017-01-01T01:08:49.738Z,1017.02
2017-01-01T01:09:30.372Z,1017.02
2017-01-01T01:10:11.019Z,1017.03
2017-01-01T01:10:51.689Z,1016.97
2017-01-01T01:11:32.355Z,1017.03
2017-01-01T01:12:12.995Z,1017.01
2017-01-01T01:12:53.659Z,1017.01
2017-01-01T01:13:34.302Z,1017.01
2017-01-01T01:14:14.930Z,1017.04
2017-01-01T01:14:55.619Z,1017.02
2017-01-01T01:15:36.258Z,1016.98
2017-01-01T01:16:16.901Z,1017.02
2017-01-01T01:16:58.303Z,1016.98
2017-01-01T01:17:38.939Z,1016.94
2017-01-01T01:18:19.564Z,1016.96
2017-01-01T01:19:00.215Z,1016.93
2017-01-01T01:19:40.878Z,1016.91
2017-01-01T01:20:21.464Z,1016.9
2017-01-01T01:21:02.121Z,1016.9
2017-01-01T01:21:42.770Z,1016.9
2017-01-01T01:22:23.415Z,1016.89
2017-01-01T01:23:04.047Z,1016.89
2017-01-01T01:23:44.672Z,1016.92
2017-01-01T01:24:25.298Z,1016.88
2017-01-01T01:25:05.925Z,1016.91
2017-01-01T01:25:46.563Z,1016.86
2017-01-01T01:26:27.204Z,1016.92
2017-01-01T01:27:07.820Z,1016.83
2017-01-01T01:27:48.442Z,1016.82
2017-01-01T01:28:29.065Z,1016.84
2017-01-01T01:29:09.713Z,1016.84
2017-01-01T01:29:50.361Z,1016.82
2017-01-01T01:30:30.996Z,1016.78
2017-01-01T01:31:11.637Z,1016.85
2017-01-01T01:31:52.258Z,1016.82
2017-01-01T01:32:32.911Z,1016.84
2017-01-01T01:33:13.533Z,1016.84
2017-01-01T01:33:54.168Z,1016.83
2017-01-01T01:34:34.793Z,1016.84
2017-01-01T01:35:15.426Z,1016.83
2017-01-01T01:35:56.068Z,1016.85
2017-01-01T01:36:36.709Z,1016.87
2017-01-01T01:37:17.339Z,1016.84
2017-01-01T01:37:57.961Z,1016.83
2017-01-01T01:38:38.673Z,1016.9
2017-01-01T01:39:19.299Z,1016.88
2017-01-01T01:39:59.919Z,1016.89
2017-01-01T01:40:40.567Z,1016.87
2017-01-01T01:41:21.202Z,1016.89
2017-01-01T01:42:01.851Z,1016.88
2017-01-01T01:42:42.569Z,1016.9
2017-01-01T01:43:23.221Z,1016.86
2017-01-01T01:44:03.851Z,1016.87
2017-01-01T01:44:44.478Z,1016.86
2017-01-01T01:45:25.115Z,1016.84
2017-01-01T01:46:05.756Z,1016.83
2017-01-01T01:46:46.375Z,1016.84
2017-01-01T01:47:27.013Z,1016.84
2017-01-01T01:48:07.647Z,1016.79
2017-01-01T01:48:48.349Z,1016.77
2017-01-01T01:49:28.981Z,1016.82
2017-01-01T01:50:09.659Z,1016.78
2017-01-01T01:50:50.252Z,1016.79
2017-01-01T01:51:30.883Z,1016.78
2017-01-01T01:52:11.496Z,1016.76
2017-01-01T01:52:52.129Z,1016.77
2017-01-01T01:53:32.757Z,1016.76
2017-01-01T01:54:13.388Z,1016.77
2017-01-01T01:54:54.023Z,1016.78
2017-01-01T01:55:34.747Z,1016.81
2017-01-01T01:56:15.395Z,1016.8
2017-01-01T01:56:56.035Z,1016.8
2017-01-01T01:57:36.652Z,1016.8
2017-01-01T01:58:17.308Z,1016.84
2017-01-01T01:58:57.917Z,1016.85
2017-01-01T01:59:38.543Z,1016.85
2017-01-01T02:00:19.182Z,1016.85
2017-01-01T02:00:59.811Z,1016.85
2017-01-01T02:01:40.451Z,1016.86
2017-01-01T02:02:21.094Z,1016.88
2017-01-01T02:03:01.727Z,1016.88
2017-01-01T02:03:42.384Z,1016.85
2017-01-01T02:04:23.004Z,1016.9
2017-01-01T02:05:03.642Z,1016.86
2017-01-01T02:05:44.294Z,1016.87
2017-01-01T02:06:24.912Z,1016.88
2017-01-01T02:07:05.543Z,1016.91
2017-01-01T02:07:46.182Z,1016.87
2017-01-01T02:08:26.813Z,1016.86
2017-01-01T02:09:07.450Z,1016.84
2017-01-01T02:09:48.109Z,1016.85
2017-01-01T02:10:28.751Z,1016.89
2017-01-01T02:11:09.372Z,1016.84
2017-01-01T02:11:50.005Z,1016.88
2017-01-01T02:12:30.639Z,1016.86
2017-01-01T02:13:11.267Z,1016.87
2017-01-01T02:13:51.940Z,1016.88
2017-01-01T02:14:32.580Z,1016.92
2017-01-01T02:15:13.208Z,1016.92
2017-01-01T02:15:53.836Z,1016.94
2017-01-01T02:16:34.475Z,1016.93
2017-01-01T02:17:15.121Z,1016.97
2017-01-01T02:17:55.740Z,1016.95
2017-01-01T02:18:36.391Z,1016.93
2017-01-01T02:19:17.042Z,1016.95
2017-01-01T02:19:57.705Z,1016.92
2017-01-01T02:20:38.326Z,1016.93
2017-01-01T02:21:18.965Z,1016.95
2017-01-01T02:21:59.607Z,1016.94
2017-01-01T02:22:40.240Z,1016.94
2017-01-01T02:23:20.863Z,1016.9
2017-01-01T02:24:01.491Z,1016.93
2017-01-01T02:24:42.125Z,1016.95
2017-01-01T02:25:22.857Z,1016.9
2017-01-01T02:26:03.490Z,1016.95
2017-01-01T02:26:44.125Z,1016.96
2017-01-01T02:27:24.767Z,1016.9
2017-01-01T02:28:05.405Z,1016.92
2017-01-01T02:28:46.029Z,1016.86
2017-01-01T02:29:26.747Z,1016.88
2017-01-01T02:30:07.392Z,1016.89
2017-01-01T02:30:48.105Z,1016.86
2017-01-01T02:31:28.761Z,1016.85
2017-01-01T02:32:09.387Z,1016.83
2017-01-01T02:32:50.015Z,1016.86
2017-01-01T02:33:30.638Z,1016.86
2017-01-01T02:34:11.267Z,1016.86
2017-01-01T02:34:51.912Z,1016.86
2017-01-01T02:35:32.548Z,1016.88
2017-01-01T02:36:13.167Z,1016.88
2017-01-01T02:36:53.848Z,1016.89
2017-01-01T02:37:34.474Z,1016.88
2017-01-01T02:38:15.123Z,1016.9
2017-01-01T02:38:55.756Z,1016.92
2017-01-01T02:39:36.384Z,1016.89
2017-01-01T02:40:17.002Z,1016.9
2017-01-01T02:40:57.650Z,1016.9
2017-01-01T02:41:38.303Z,1016.89
2017-01-01T02:42:18.939Z,1016.94
2017-01-01T02:42:59.581Z,1016.93
2017-01-01T02:43:40.209Z,1016.91
2017-01-01T02:44:20.882Z,1016.95
2017-01-01T02:45:01.508Z,1016.97
2017-01-01T02:45:42.146Z,1016.91
2017-01-01T02:46:22.772Z,1016.95
2017-01-01T02:47:03.400Z,1016.92
2017-01-01T02:47:44.023Z,1016.92
2017-01-01T02:48:24.653Z,1016.91
2017-01-01T02:49:05.280Z,1016.94
2017-01-01T02:49:45.923Z,1016.94
2017-01-01T02:50:26.570Z,1016.91
2017-01-01T02:51:07.191Z,1016.96
2017-01-01T02:51:47.818Z,1016.94
2017-01-01T02:52:28.576Z,1016.94
2017-01-01T02:53:09.211Z,1016.95
2017-01-01T02:53:49.835Z,1016.91
2017-01-01T02:54:30.489Z,1016.92
2017-01-01T02:55:11.119Z,1016.92
2017-01-01T02:55:51.749Z,1016.96
2017-01-01T02:56:32.433Z,1016.92
2017-01-01T02:57:13.064Z,1016.96
2017-01-01T02:57:53.688Z,1016.95
2017-01-01T02:58:34.318Z,1016.94
2017-01-01T02:59:14.962Z,1016.99
2017-01-01T02:59:55.585Z,1016.94
2017-01-01T03:00:36.204Z,1016.96
2017-01-01T03:01:16.849Z,1016.97
2017-01-01T03:01:57.474Z,1016.95
2017-01-01T03:02:38.106Z,1016.96
2017-01-01T03:03:18.737Z,1016.96
2017-01-01T03:03:59.364Z,1016.96
2017-01-01T03:04:39.999Z,1016.9
2017-01-01T03:05:20.616Z,1016.93
2017-01-01T03:06:01.272Z,1016.94
2017-01-01T03:06:41.916Z,1016.95
2017-01-01T03:07:22.539Z,1016.94
2017-01-01T03:08:03.187Z,1016.96
2017-01-01T03:08:43.823Z,1016.94
2017-01-01T03:09:24.556Z,1016.91
2017-01-01T03:10:05.187Z,1016.92
2017-01-01T03:10:45.859Z,1016.91
2017-01-01T03:11:26.494Z,1016.89
2017-01-01T03:12:07.134Z,1016.94
2017-01-01T03:12:47.770Z,1016.88
2017-01-01T03:13:28.405Z,1016.91
2017-01-01T03:14:09.037Z,1016.92
2017-01-01T03:14:49.687Z,1016.88
2017-01-01T03:15:30.313Z,1016.88
2017-01-01T03:16:10.957Z,1016.88
2017-01-01T03:16:51.576Z,1016.83
2017-01-01T03:17:32.203Z,1016.87
2017-01-01T03:18:12.843Z,1016.8
2017-01-01T03:18:53.468Z,1016.83
2017-01-01T03:19:34.097Z,1016.86
2017-01-01T03:20:14.743Z,1016.82
2017-01-01T03:20:55.354Z,1016.78
2017-01-01T03:21:35.985Z,1016.8
2017-01-01T03:22:16.623Z,1016.79
2017-01-01T03:22:57.265Z,1016.79
2017-01-01T03:23:37.893Z,1016.77
2017-01-01T03:24:18.523Z,1016.76
2017-01-01T03:24:59.168Z,1016.73
2017-01-01T03:25:39.817Z,1016.73
2017-01-01T03:26:20.463Z,1016.67
2017-01-01T03:27:01.110Z,1016.68
2017-01-01T03:27:41.739Z,1016.68
2017-01-01T03:28:22.373Z,1016.67
2017-01-01T03:29:02.992Z,1016.66
2017-01-01T03:29:43.621Z,1016.67
2017-01-01T03:30:24.255Z,1016.69
2017-01-01T03:31:04.905Z,1016.68
2017-01-01T03:31:45.545Z,1016.68
2017-01-01T03:32:26.217Z,1016.63
2017-01-01T03:33:06.861Z,1016.65
2017-01-01T03:33:47.495Z,1016.65
2017-01-01T03:34:28.138Z,1016.64
2017-01-01T03:35:08.773Z,1016.63
2017-01-01T03:35:49.405Z,1016.63
2017-01-01T03:36:30.033Z,1016.61
2017-01-01T03:37:10.660Z,1016.6
2017-01-01T03:37:51.301Z,1016.57
2017-01-01T03:38:31.969Z,1016.6
2017-01-01T03:39:12.605Z,1016.56
2017-01-01T03:39:53.318Z,1016.52
2017-01-01T03:40:33.977Z,1016.53
2017-01-01T03:41:14.603Z,1016.49
2017-01-01T03:41:55.262Z,1016.48
2017-01-01T03:42:35.882Z,1016.48
2017-01-01T03:43:16.518Z,1016.46
2017-01-01T03:43:57.230Z,1016.5
2017-01-01T03:44:37.864Z,1016.49
2017-01-01T03:45:18.497Z,1016.5
2017-01-01T03:45:59.136Z,1016.52
2017-01-01T03:46:39.800Z,1016.51
2017-01-01T03:47:20.416Z,1016.56
2017-01-01T03:48:01.098Z,1016.51
2017-01-01T03:48:41.729Z,1016.57
2017-01-01T03:49:22.377Z,1016.6
2017-01-01T03:50:03.027Z,1016.57
2017-01-01T03:50:43.684Z,1016.57
2017-01-01T03:51:24.336Z,1016.54
2017-01-01T03:52:04.982Z,1016.55
2017-01-01T03:52:45.613Z,1016.58
2017-01-01T03:53:26.267Z,1016.56
2017-01-01T03:54:06.981Z,1016.55
2017-01-01T03:54:47.601Z,1016.5
2017-01-01T03:55:28.255Z,1016.54
2017-01-01T03:56:08.912Z,1016.51
2017-01-01T03:56:49.537Z,1016.46
2017-01-01T03:57:30.178Z,1016.5
2017-01-01T03:58:10.842Z,1016.51
2017-01-01T03:58:51.482Z,1016.52
2017-01-01T03:59:32.124Z,1016.46
2017-01-01T04:00:12.782Z,1016.48
2017-01-01T04:00:53.413Z,1016.41
2017-01-01T04:01:34.046Z,1016.44
2017-01-01T04:02:14.709Z,1016.4
2017-01-01T04:02:55.358Z,1016.38
2017-01-01T04:03:35.967Z,1016.43
2017-01-01T04:04:16.608Z,1016.41
2017-01-01T04:05:00.004Z,1016.45
2017-01-01T04:05:40.645Z,1016.47
2017-01-01T04:06:21.301Z,1016.5
2017-01-01T04:07:01.935Z,1016.51
2017-01-01T04:07:42.608Z,1016.57
2017-01-01T04:08:23.248Z,1016.57
2017-01-01T04:09:03.896Z,1016.54
2017-01-01T04:09:44.583Z,1016.53
2017-01-01T04:10:25.234Z,1016.49
2017-01-01T04:11:05.894Z,1016.52
2017-01-01T04:11:46.522Z,1016.54
2017-01-01T04:12:27.162Z,1016.5
2017-01-01T04:13:07.795Z,1016.52
2017-01-01T04:13:48.505Z,1016.47
2017-01-01T04:14:29.131Z,1016.48
2017-01-01T04:15:09.778Z,1016.46
2017-01-01T04:15:50.443Z,1016.43
2017-01-01T04:16:31.088Z,1016.45
2017-01-01T04:17:11.783Z,1016.4
2017-01-01T04:17:52.395Z,1016.4
2017-01-01T04:18:33.057Z,1016.42
2017-01-01T04:19:13.777Z,1016.36
2017-01-01T04:19:54.420Z,1016.35
2017-01-01T04:20:35.045Z,1016.39
2017-01-01T04:21:15.705Z,1016.38
2017-01-01T04:21:56.350Z,1016.33
2017-01-01T04:22:36.987Z,1016.36
2017-01-01T04:23:17.628Z,1016.28
2017-01-01T04:23:58.271Z,1016.31
2017-01-01T04:24:38.902Z,1016.3
2017-01-01T04:25:19.547Z,1016.28
2017-01-01T04:26:00.178Z,1016.27
2017-01-01T04:26:40.813Z,1016.24
2017-01-01T04:27:21.440Z,1016.21
2017-01-01T04:28:02.092Z,1016.22
2017-01-01T04:28:42.728Z,1016.14
2017-01-01T04:29:23.347Z,1016.13
2017-01-01T04:30:03.975Z,1016.14
2017-01-01T04:30:44.602Z,1016.2
2017-01-01T04:31:25.244Z,1016.19
2017-01-01T04:32:05.882Z,1016.19
2017-01-01T04:32:46.527Z,1016.22
2017-01-01T04:33:27.142Z,1016.21
2017-01-01T04:34:07.766Z,1016.23
2017-01-01T04:34:48.460Z,1016.2
2017-01-01T04:35:29.101Z,1016.23
2017-01-01T04:36:09.736Z,1016.23
2017-01-01T04:36:50.386Z,1016.24
2017-01-01T04:37:30.995Z,1016.19
2017-01-01T04:38:11.620Z,1016.26
2017-01-01T04:38:52.327Z,1016.25
2017-01-01T04:39:32.985Z,1016.26
2017-01-01T04:40:13.613Z,1016.25
2017-01-01T04:40:54.242Z,1016.23
2017-01-01T04:41:34.878Z,1016.22
2017-01-01T04:42:15.509Z,1016.18
2017-01-01T04:42:56.142Z,1016.17
2017-01-01T04:43:36.776Z,1016.18
2017-01-01T04:44:17.428Z,1016.18
2017-01-01T04:44:58.060Z,1016.17
2017-01-01T04:45:38.694Z,1016.23
2017-01-01T04:46:19.318Z,1016.22
2017-01-01T04:46:59.954Z,1016.24
2017-01-01T04:47:40.613Z,1016.23
2017-01-01T04:48:21.243Z,1016.2
2017-01-01T04:49:02.034Z,1016.24
2017-01-01T04:49:42.667Z,1016.24
2017-01-01T04:50:23.318Z,1016.24
2017-01-01T04:51:03.940Z,1016.22
2017-01-01T04:51:44.570Z,1016.22
2017-01-01T04:52:25.204Z,1016.19
2017-01-01T04:53:05.856Z,1016.23
2017-01-01T04:53:46.494Z,1016.2
2017-01-01T04:54:27.130Z,1016.21
2017-01-01T04:55:07.781Z,1016.2
2017-01-01T04:55:48.414Z,1016.19
2017-01-01T04:56:29.047Z,1016.2
2017-01-01T04:57:09.737Z,1016.2
2017-01-01T04:57:50.391Z,1016.21
2017-01-01T04:58:31.024Z,1016.19
2017-01-01T04:59:11.702Z,1016.19
2017-01-01T04:59:52.335Z,1016.18
2017-01-01T05:00:32.979Z,1016.16
2017-01-01T05:01:13.633Z,1016.21
2017-01-01T05:01:54.265Z,1016.21
2017-01-01T05:02:34.941Z,1016.18
2017-01-01T05:03:15.558Z,1016.19
2017-01-01T05:03:56.190Z,1016.19
2017-01-01T05:04:36.862Z,1016.16
2017-01-01T05:05:17.490Z,1016.16
2017-01-01T05:05:58.120Z,1016.17
2017-01-01T05:06:38.764Z,1016.15
2017-01-01T05:07:19.368Z,1016.19
2017-01-01T05:08:00.020Z,1016.17
2017-01-01T05:08:40.670Z,1016.16
2017-01-01T05:09:21.284Z,1016.13
2017-01-01T05:10:01.920Z,1016.21
2017-01-01T05:10:42.561Z,1016.17
2017-01-01T05:11:23.209Z,1016.18
2017-01-01T05:12:03.843Z,1016.17
2017-01-01T05:12:44.496Z,1016.18
2017-01-01T05:13:25.128Z,1016.2
2017-01-01T05:14:05.816Z,1016.22
2017-01-01T05:14:46.462Z,1016.22
2017-01-01T05:15:27.096Z,1016.2
2017-01-01T05:16:08.755Z,1016.2
2017-01-01T05:16:49.397Z,1016.19
2017-01-01T05:17:30.054Z,1016.2
2017-01-01T05:18:10.706Z,1016.18
2017-01-01T05:18:51.340Z,1016.17
2017-01-01T05:19:31.971Z,1016.15
2017-01-01T05:20:12.644Z,1016.15
2017-01-01T05:20:53.269Z,1016.17
2017-01-01T05:21:33.905Z,1016.16
2017-01-01T05:22:14.524Z,1016.09
2017-01-01T05:22:55.168Z,1016.07
2017-01-01T05:23:35.808Z,1016.12
2017-01-01T05:24:16.444Z,1016.09
2017-01-01T05:24:57.075Z,1016.09
2017-01-01T05:25:37.701Z,1016.09
2017-01-01T05:26:18.319Z,1016.11
2017-01-01T05:26:58.953Z,1016.08
2017-01-01T05:27:39.591Z,1016.08
2017-01-01T05:28:20.217Z,1016.1
2017-01-01T05:29:00.858Z,1016.04
2017-01-01T05:29:41.484Z,1016.09
2017-01-01T05:30:22.131Z,1016.06
2017-01-01T05:31:02.745Z,1016.12
2017-01-01T05:31:43.372Z,1016.1
2017-01-01T05:32:24.015Z,1016.12
2017-01-01T05:33:04.665Z,1016.14
2017-01-01T05:33:45.300Z,1016.09
2017-01-01T05:34:25.924Z,1016.14
2017-01-01T05:35:06.563Z,1016.15
2017-01-01T05:35:47.209Z,1016.12
2017-01-01T05:36:27.859Z,1016.14
2017-01-01T05:37:08.488Z,1016.12
2017-01-01T05:37:49.113Z,1016.13
2017-01-01T05:38:29.742Z,1016.15
2017-01-01T05:39:10.372Z,1016.17
2017-01-01T05:39:51.026Z,1016.13
2017-01-01T05:40:31.669Z,1016.1
2017-01-01T05:41:12.377Z,1016.12
2017-01-01T05:41:52.968Z,1016.15
2017-01-01T05:42:33.604Z,1016.11
2017-01-01T05:43:14.240Z,1016.16
2017-01-01T05:43:54.865Z,1016.2
2017-01-01T05:44:35.503Z,1016.18
2017-01-01T05:45:16.131Z,1016.17
2017-01-01T05:45:56.766Z,1016.18
2017-01-01T05:46:37.404Z,1016.17
2017-01-01T05:47:18.023Z,1016.19
2017-01-01T05:47:58.673Z,1016.16
2017-01-01T05:48:39.413Z,1016.13
2017-01-01T05:49:20.056Z,1016.07
2017-01-01T05:50:00.691Z,1016.06
2017-01-01T05:50:41.321Z,1016.02
2017-01-01T05:51:21.955Z,1016.03
2017-01-01T05:52:02.577Z,1016.05
2017-01-01T05:52:43.257Z,1016.06
2017-01-01T05:53:23.890Z,1016.04
2017-01-01T05:54:04.529Z,1016.02
2017-01-01T05:54:45.215Z,1016.06
2017-01-01T05:55:25.842Z,1016
2017-01-01T05:56:06.478Z,1016.01
2017-01-01T05:56:47.113Z,1016.03
2017-01-01T05:57:27.753Z,1016.03
2017-01-01T05:58:08.381Z,1016.01
2017-01-01T05:58:49.059Z,1016.03
2017-01-01T05:59:29.684Z,1016.02
2017-01-01T06:00:10.319Z,1015.99
2017-01-01T06:00:50.990Z,1015.99
2017-01-01T06:01:31.621Z,1015.99
2017-01-01T06:02:12.268Z,1015.96
2017-01-01T06:02:52.893Z,1015.96
2017-01-01T06:03:33.526Z,1015.97
2017-01-01T06:04:14.182Z,1015.94
2017-01-01T06:04:54.812Z,1015.95
2017-01-01T06:05:35.446Z,1015.95
2017-01-01T06:06:16.084Z,1015.96
2017-01-01T06:06:56.712Z,1015.99
2017-01-01T06:07:37.336Z,1015.96
2017-01-01T06:08:17.954Z,1015.97
2017-01-01T06:08:58.581Z,1015.99
2017-01-01T06:09:39.198Z,1015.98
2017-01-01T06:10:19.875Z,1015.97
2017-01-01T06:11:00.508Z,1015.94
2017-01-01T06:11:41.130Z,1015.92
2017-01-01T06:12:21.813Z,1015.92
2017-01-01T06:13:02.458Z,1015.92
2017-01-01T06:13:43.144Z,1015.91
2017-01-01T06:14:23.795Z,1015.87
2017-01-01T06:15:04.450Z,1015.86
2017-01-01T06:15:45.111Z,1015.86
2017-01-01T06:16:25.738Z,1015.87
2017-01-01T06:17:06.417Z,1015.87
2017-01-01T06:17:47.049Z,1015.86
2017-01-01T06:18:27.668Z,1015.87
2017-01-01T06:19:08.295Z,1015.9
2017-01-01T06:19:48.969Z,1015.93
2017-01-01T06:20:29.613Z,1015.92
2017-01-01T06:21:10.279Z,1015.91
2017-01-01T06:21:50.911Z,1015.94
2017-01-01T06:22:31.526Z,1015.92
2017-01-01T06:23:12.156Z,1015.91
2017-01-01T06:23:52.799Z,1015.89
2017-01-01T06:24:33.420Z,1015.9
2017-01-01T06:25:14.061Z,1015.93
2017-01-01T06:25:54.693Z,1015.9
2017-01-01T06:26:35.343Z,1015.88
2017-01-01T06:27:15.991Z,1015.9
2017-01-01T06:27:56.626Z,1015.89
2017-01-01T06:28:37.265Z,1015.89
2017-01-01T06:29:17.909Z,1015.88
2017-01-01T06:29:58.543Z,1015.88
2017-01-01T06:30:39.168Z,1015.91
2017-01-01T06:31:19.796Z,1015.9
2017-01-01T06:32:00.434Z,1015.92
2017-01-01T06:32:41.059Z,1015.93
2017-01-01T06:33:21.720Z,1015.89
2017-01-01T06:34:02.348Z,1015.87
2017-01-01T06:34:42.978Z,1015.86
2017-01-01T06:35:23.612Z,1015.88
2017-01-01T06:36:04.244Z,1015.92
2017-01-01T06:36:44.870Z,1015.84
2017-01-01T06:37:25.498Z,1015.9
2017-01-01T06:38:06.124Z,1015.91
2017-01-01T06:38:46.756Z,1015.94
2017-01-01T06:39:27.433Z,1015.94
2017-01-01T06:40:08.073Z,1015.92
2017-01-01T06:40:48.709Z,1015.92
2017-01-01T06:41:29.341Z,1015.97
2017-01-01T06:42:09.977Z,1015.95
2017-01-01T06:42:50.611Z,1015.97
2017-01-01T06:43:31.239Z,1015.99
2017-01-01T06:44:11.892Z,1015.97
2017-01-01T06:44:52.546Z,1015.97
2017-01-01T06:45:33.185Z,1015.97
2017-01-01T06:46:13.807Z,1015.94
2017-01-01T06:46:54.428Z,1015.95
2017-01-01T06:47:35.067Z,1015.95
2017-01-01T06:48:15.699Z,1015.92
2017-01-01T06:48:56.320Z,1015.93
2017-01-01T06:49:36.953Z,1015.95
2017-01-01T06:50:17.575Z,1015.99
2017-01-01T06:50:58.244Z,1015.93
2017-01-01T06:51:38.891Z,1015.9
2017-01-01T06:52:19.547Z,1015.93
2017-01-01T06:53:00.183Z,1015.91
2017-01-01T06:53:40.827Z,1015.93
2017-01-01T06:54:21.545Z,1015.9
2017-01-01T06:55:02.203Z,1015.91
2017-01-01T06:55:42.832Z,1015.92
2017-01-01T06:56:23.469Z,1015.91
2017-01-01T06:57:04.112Z,1015.92
2017-01-01T06:57:44.738Z,1015.92
2017-01-01T06:58:25.407Z,1015.97
2017-01-01T06:59:06.049Z,1015.92
2017-01-01T06:59:46.694Z,1015.93
2017-01-01T07:00:27.335Z,1015.93
2017-01-01T07:01:07.978Z,1015.84
2017-01-01T07:01:48.614Z,1015.88
2017-01-01T07:02:29.264Z,1015.91
2017-01-01T07:03:09.914Z,1015.85
2017-01-01T07:03:50.536Z,1015.84
2017-01-01T07:04:31.186Z,1015.83
2017-01-01T07:05:11.821Z,1015.84
2017-01-01T07:05:52.446Z,1015.85
2017-01-01T07:06:33.085Z,1015.84
2017-01-01T07:07:13.721Z,1015.87
2017-01-01T07:07:54.350Z,1015.82
2017-01-01T07:08:34.982Z,1015.86
2017-01-01T07:09:15.614Z,1015.91
2017-01-01T07:09:56.255Z,1015.89
2017-01-01T07:10:36.880Z,1015.87
2017-01-01T07:11:17.516Z,1015.9
2017-01-01T07:11:58.169Z,1015.86
2017-01-01T07:12:38.802Z,1015.88
2017-01-01T07:13:19.433Z,1015.86
2017-01-01T07:14:00.084Z,1015.86
2017-01-01T07:14:40.717Z,1015.89
2017-01-01T07:15:21.336Z,1015.9
2017-01-01T07:16:01.960Z,1015.91
2017-01-01T07:16:42.586Z,1015.89
2017-01-01T07:17:23.242Z,1015.83
2017-01-01T07:18:03.876Z,1015.87
2017-01-01T07:18:44.509Z,1015.82
2017-01-01T07:19:25.137Z,1015.85
2017-01-01T07:20:05.784Z,1015.83
2017-01-01T07:20:46.411Z,1015.85
2017-01-01T07:21:27.045Z,1015.82
2017-01-01T07:22:07.698Z,1015.87
2017-01-01T07:22:48.343Z,1015.86
2017-01-01T07:23:28.979Z,1015.85
2017-01-01T07:24:09.629Z,1015.84
2017-01-01T07:24:50.298Z,1015.86
2017-01-01T07:25:30.908Z,1015.84
2017-01-01T07:26:11.542Z,1015.84
2017-01-01T07:26:52.174Z,1015.84
2017-01-01T07:27:32.796Z,1015.82
2017-01-01T07:28:13.433Z,1015.84
2017-01-01T07:28:54.065Z,1015.81
2017-01-01T07:29:34.702Z,1015.82
2017-01-01T07:30:15.322Z,1015.8
2017-01-01T07:30:55.971Z,1015.83
2017-01-01T07:31:36.651Z,1015.81
2017-01-01T07:32:17.292Z,1015.79
2017-01-01T07:32:57.920Z,1015.8
2017-01-01T07:33:38.550Z,1015.8
2017-01-01T07:34:19.194Z,1015.81
2017-01-01T07:34:59.843Z,1015.8
2017-01-01T07:35:40.496Z,1015.83
2017-01-01T07:36:21.129Z,1015.83
2017-01-01T07:37:01.771Z,1015.84
2017-01-01T07:37:42.415Z,1015.83
2017-01-01T07:38:23.064Z,1015.84
2017-01-01T07:39:03.699Z,1015.83
2017-01-01T07:39:44.332Z,1015.85
2017-01-01T07:40:24.964Z,1015.84
2017-01-01T07:41:05.641Z,1015.86
2017-01-01T07:41:46.290Z,1015.87
2017-01-01T07:42:26.927Z,1015.83
2017-01-01T07:43:07.607Z,1015.81
2017-01-01T07:43:48.249Z,1015.84
2017-01-01T07:44:28.876Z,1015.82
2017-01-01T07:45:09.512Z,1015.84
2017-01-01T07:45:50.130Z,1015.76
2017-01-01T07:46:30.760Z,1015.77
2017-01-01T07:47:11.419Z,1015.74
2017-01-01T07:47:52.046Z,1015.76
2017-01-01T07:48:32.672Z,1015.75
2017-01-01T07:49:13.291Z,1015.74
2017-01-01T07:49:53.927Z,1015.76
2017-01-01T07:50:34.602Z,1015.75
2017-01-01T07:51:15.230Z,1015.71
2017-01-01T07:51:55.860Z,1015.75
2017-01-01T07:52:36.529Z,1015.71
2017-01-01T07:53:17.160Z,1015.69
2017-01-01T07:53:57.792Z,1015.73
2017-01-01T07:54:38.453Z,1015.65
2017-01-01T07:55:19.082Z,1015.67
2017-01-01T07:55:59.743Z,1015.59
2017-01-01T07:56:40.390Z,1015.62
2017-01-01T07:57:21.009Z,1015.57
2017-01-01T07:58:01.663Z,1015.58
2017-01-01T07:58:42.295Z,1015.61
2017-01-01T07:59:22.929Z,1015.61
2017-01-01T08:00:03.563Z,1015.62
2017-01-01T08:00:44.199Z,1015.61
2017-01-01T08:01:24.827Z,1015.61
2017-01-01T08:02:05.452Z,1015.68
2017-01-01T08:02:46.085Z,1015.6
2017-01-01T08:03:26.720Z,1015.67
2017-01-01T08:04:07.361Z,1015.7
2017-01-01T08:04:47.989Z,1015.58
2017-01-01T08:05:28.617Z,1015.62
2017-01-01T08:06:09.269Z,1015.66
2017-01-01T08:06:49.901Z,1015.59
2017-01-01T08:07:30.548Z,1015.6
2017-01-01T08:08:11.171Z,1015.63
2017-01-01T08:08:51.805Z,1015.6
2017-01-01T08:09:32.436Z,1015.66
2017-01-01T08:10:13.069Z,1015.59
2017-01-01T08:10:53.705Z,1015.57
2017-01-01T08:11:34.336Z,1015.56
2017-01-01T08:12:14.962Z,1015.57
2017-01-01T08:12:55.607Z,1015.55
2017-01-01T08:13:36.282Z,1015.58
2017-01-01T08:14:16.862Z,1015.6